createdAt,value
2017-05-17T00:00:21.245Z,20.64
2017-05-17T00:01:22.522Z,20.58
2017-05-17T00:02:23.773Z,20.58
2017-05-17T00:03:25.311Z,20.59
2017-05-17T00:04:26.469Z,20.61
2017-05-17T00:05:27.742Z,20.62
2017-05-17T00:06:29.018Z,20.65
2017-05-17T00:07:30.280Z,20.58
2017-05-17T00:08:31.579Z,20.59
2017-05-17T00:09:32.824Z,20.64
2017-05-17T00:10:34.067Z,20.58
2017-05-17T00:11:35.336Z,20.58
2017-05-17T00:12:36.609Z,20.56
2017-05-17T00:13:37.908Z,20.5
2017-05-17T00:14:39.207Z,20.5
2017-05-17T00:15:40.440Z,20.51
2017-05-17T00:16:41.767Z,20.56
2017-05-17T00:17:43.058Z,20.49
2017-05-17T00:18:44.326Z,20.46
2017-05-17T00:19:45.624Z,20.47
2017-05-17T00:20:46.995Z,20.38
2017-05-17T00:21:48.321Z,20.42
2017-05-17T00:22:49.574Z,20.47
2017-05-17T00:23:50.825Z,20.47
2017-05-17T00:24:52.109Z,20.46
2017-05-17T00:25:53.463Z,20.46
2017-05-17T00:26:54.763Z,20.39
2017-05-17T00:27:56.043Z,20.41
2017-05-17T00:28:57.326Z,20.42
2017-05-17T00:29:58.621Z,20.31
2017-05-17T00:30:59.857Z,20.39
2017-05-17T00:32:01.166Z,20.23
2017-05-17T00:33:02.465Z,20.25
2017-05-17T00:34:03.736Z,20.33
2017-05-17T00:35:05.010Z,20.3
2017-05-17T00:36:06.243Z,20.28
2017-05-17T00:37:07.614Z,20.27
2017-05-17T00:38:08.875Z,20.27
2017-05-17T00:39:10.260Z,20.23
2017-05-17T00:40:11.671Z,20.25
2017-05-17T00:41:12.930Z,20.27
2017-05-17T00:42:14.211Z,20.27
2017-05-17T00:43:15.553Z,20.27
2017-05-17T00:44:16.805Z,20.25
2017-05-17T00:45:18.202Z,20.23
2017-05-17T00:46:19.465Z,20.24
2017-05-17T00:47:20.800Z,20.13
2017-05-17T00:48:21.987Z,20.18
2017-05-17T00:49:23.266Z,20.2
2017-05-17T00:50:24.551Z,20.2
2017-05-17T00:51:25.852Z,20.2
2017-05-17T00:52:27.113Z,20.1
2017-05-17T00:53:28.372Z,20.1
2017-05-17T00:54:29.653Z,20.06
2017-05-17T00:55:30.946Z,20.08
2017-05-17T00:56:32.217Z,20.16
2017-05-17T00:57:33.468Z,20.13
2017-05-17T00:58:34.747Z,20.15
2017-05-17T00:59:36.091Z,20.1
2017-05-17T01:00:37.305Z,20.12
2017-05-17T01:01:38.562Z,20.16
2017-05-17T01:02:39.825Z,20.16
2017-05-17T01:03:41.074Z,20.08
2017-05-17T01:04:42.341Z,20.12
2017-05-17T01:05:43.618Z,20.13
2017-05-17T01:06:44.877Z,20.05
2017-05-17T01:07:46.173Z,20.05
2017-05-17T01:08:47.414Z,20
2017-05-17T01:09:48.679Z,19.97
2017-05-17T01:10:49.945Z,20.05
2017-05-17T01:11:51.230Z,20.02
2017-05-17T01:12:52.483Z,20
2017-05-17T01:13:53.769Z,20.02
2017-05-17T01:14:55.133Z,19.98
2017-05-17T01:15:56.263Z,20
2017-05-17T01:16:57.514Z,20
2017-05-17T01:17:58.754Z,19.95
2017-05-17T01:19:00.001Z,19.94
2017-05-17T01:20:01.246Z,19.98
2017-05-17T01:21:02.566Z,19.95
2017-05-17T01:22:03.875Z,19.88
2017-05-17T01:23:05.131Z,19.86
2017-05-17T01:24:06.372Z,19.9
2017-05-17T01:25:07.638Z,19.93
2017-05-17T01:26:08.949Z,19.95
2017-05-17T01:27:10.281Z,19.9
2017-05-17T01:28:11.557Z,19.9
2017-05-17T01:29:12.813Z,19.93
2017-05-17T01:30:14.059Z,19.84
2017-05-17T01:31:15.426Z,19.83
2017-05-17T01:32:16.702Z,19.79
2017-05-17T01:33:17.965Z,19.86
2017-05-17T01:34:19.233Z,19.84
2017-05-17T01:35:20.464Z,19.8
2017-05-17T01:36:21.747Z,19.87
2017-05-17T01:37:23.007Z,19.93
2017-05-17T01:38:24.313Z,19.86
2017-05-17T01:39:25.688Z,19.88
2017-05-17T01:40:26.981Z,19.79
2017-05-17T01:41:28.237Z,19.78
2017-05-17T01:42:29.512Z,19.78
2017-05-17T01:43:30.837Z,19.75
2017-05-17T01:44:32.092Z,19.73
2017-05-17T01:45:33.442Z,19.73
2017-05-17T01:46:34.705Z,19.79
2017-05-17T01:47:35.962Z,19.78
2017-05-17T01:48:37.228Z,19.79
2017-05-17T01:49:38.498Z,19.75
2017-05-17T01:50:39.849Z,19.75
2017-05-17T01:51:41.146Z,19.75
2017-05-17T01:52:42.442Z,19.76
2017-05-17T01:53:43.697Z,19.78
2017-05-17T01:54:44.949Z,19.79
2017-05-17T01:55:46.209Z,19.72
2017-05-17T01:56:47.507Z,19.7
2017-05-17T01:57:48.788Z,19.69
2017-05-17T01:58:50.017Z,19.63
2017-05-17T01:59:51.288Z,19.63
2017-05-17T02:00:52.620Z,19.66
2017-05-17T02:01:53.871Z,19.69
2017-05-17T02:02:55.151Z,19.58
2017-05-17T02:03:56.405Z,19.58
2017-05-17T02:04:57.699Z,19.55
2017-05-17T02:05:58.929Z,19.61
2017-05-17T02:07:00.172Z,19.6
2017-05-17T02:08:01.485Z,19.54
2017-05-17T02:09:02.729Z,19.55
2017-05-17T02:10:03.973Z,19.57
2017-05-17T02:11:05.245Z,19.5
2017-05-17T02:12:06.459Z,19.6
2017-05-17T02:13:07.779Z,19.55
2017-05-17T02:14:09.096Z,19.4
2017-05-17T02:15:10.343Z,19.47
2017-05-17T02:16:11.621Z,19.5
2017-05-17T02:17:12.893Z,19.4
2017-05-17T02:18:14.171Z,19.48
2017-05-17T02:19:15.450Z,19.47
2017-05-17T02:20:16.696Z,19.35
2017-05-17T02:21:18.024Z,19.31
2017-05-17T02:22:19.302Z,19.39
2017-05-17T02:23:20.557Z,19.36
2017-05-17T02:24:21.863Z,19.29
2017-05-17T02:25:23.111Z,19.25
2017-05-17T02:26:24.372Z,19.33
2017-05-17T02:27:25.710Z,19.33
2017-05-17T02:28:27.005Z,19.28
2017-05-17T02:29:28.250Z,19.35
2017-05-17T02:30:29.524Z,19.24
2017-05-17T02:31:30.833Z,19.29
2017-05-17T02:32:32.104Z,19.32
2017-05-17T02:33:33.362Z,19.28
2017-05-17T02:34:34.608Z,19.28
2017-05-17T02:35:35.891Z,19.28
2017-05-17T02:36:37.150Z,19.28
2017-05-17T02:37:38.480Z,19.31
2017-05-17T02:38:39.772Z,19.29
2017-05-17T02:39:41.079Z,19.23
2017-05-17T02:40:42.381Z,19.23
2017-05-17T02:41:43.703Z,19.23
2017-05-17T02:42:44.958Z,19.29
2017-05-17T02:43:46.247Z,19.28
2017-05-17T02:44:47.514Z,19.21
2017-05-17T02:45:48.802Z,19.24
2017-05-17T02:46:50.047Z,19.11
2017-05-17T02:47:51.325Z,19.2
2017-05-17T02:48:52.562Z,19.15
2017-05-17T02:49:53.841Z,19.1
2017-05-17T02:50:55.148Z,19.14
2017-05-17T02:51:56.425Z,19.11
2017-05-17T02:52:57.844Z,19.15
2017-05-17T02:53:59.100Z,19.08
2017-05-17T02:55:00.515Z,18.99
2017-05-17T02:56:01.767Z,19.1
2017-05-17T02:57:03.063Z,19.05
2017-05-17T02:58:04.308Z,18.97
2017-05-17T02:59:05.593Z,18.91
2017-05-17T03:00:06.868Z,19.02
2017-05-17T03:01:08.213Z,18.91
2017-05-17T03:02:09.493Z,18.95
2017-05-17T03:03:10.775Z,18.84
2017-05-17T03:04:12.043Z,18.91
2017-05-17T03:05:13.341Z,18.79
2017-05-17T03:06:14.603Z,18.77
2017-05-17T03:07:15.878Z,18.76
2017-05-17T03:08:17.144Z,18.83
2017-05-17T03:09:18.434Z,18.84
2017-05-17T03:10:19.679Z,18.77
2017-05-17T03:11:20.917Z,18.74
2017-05-17T03:12:22.168Z,18.76
2017-05-17T03:13:23.483Z,18.76
2017-05-17T03:14:24.681Z,18.77
2017-05-17T03:15:25.996Z,18.84
2017-05-17T03:16:27.248Z,18.83
2017-05-17T03:17:28.463Z,18.9
2017-05-17T03:18:29.840Z,18.86
2017-05-17T03:19:31.085Z,18.84
2017-05-17T03:20:32.364Z,18.79
2017-05-17T03:21:33.675Z,18.84
2017-05-17T03:22:34.915Z,18.84
2017-05-17T03:23:36.167Z,18.8
2017-05-17T03:24:37.422Z,18.8
2017-05-17T03:25:38.693Z,18.82
2017-05-17T03:26:39.958Z,18.76
2017-05-17T03:27:41.220Z,18.76
2017-05-17T03:28:42.475Z,18.73
2017-05-17T03:29:43.817Z,18.79
2017-05-17T03:30:45.100Z,18.74
2017-05-17T03:31:46.429Z,18.77
2017-05-17T03:32:47.688Z,18.76
2017-05-17T03:33:48.931Z,18.72
2017-05-17T03:34:50.207Z,18.76
2017-05-17T03:35:51.443Z,18.76
2017-05-17T03:36:52.732Z,18.76
2017-05-17T03:37:54.002Z,18.73
2017-05-17T03:38:55.320Z,18.68
2017-05-17T03:39:56.607Z,18.64
2017-05-17T03:40:57.910Z,18.64
2017-05-17T03:41:59.182Z,18.68
2017-05-17T03:43:00.457Z,18.72
2017-05-17T03:44:01.739Z,18.62
2017-05-17T03:45:03.064Z,18.7
2017-05-17T03:46:04.331Z,18.67
2017-05-17T03:47:05.543Z,18.7
2017-05-17T03:48:06.801Z,18.61
2017-05-17T03:49:08.082Z,18.72
2017-05-17T03:50:09.354Z,18.65
2017-05-17T03:51:10.592Z,18.73
2017-05-17T03:52:11.909Z,18.68
2017-05-17T03:53:13.160Z,18.65
2017-05-17T03:54:14.438Z,18.8
2017-05-17T03:55:15.687Z,18.7
2017-05-17T03:56:16.983Z,18.65
2017-05-17T03:57:18.251Z,18.61
2017-05-17T03:58:19.541Z,18.73
2017-05-17T03:59:20.805Z,18.82
2017-05-17T04:00:22.142Z,18.7
2017-05-17T04:01:23.491Z,18.7
2017-05-17T04:02:24.743Z,18.74
2017-05-17T04:03:26.017Z,18.68
2017-05-17T04:04:27.255Z,18.73
2017-05-17T04:05:28.532Z,18.74
2017-05-17T04:06:29.958Z,18.68
2017-05-17T04:07:31.205Z,18.72
2017-05-17T04:08:32.472Z,18.67
2017-05-17T04:09:33.749Z,18.67
2017-05-17T04:10:35.000Z,18.67
2017-05-17T04:11:36.269Z,18.73
2017-05-17T04:12:37.550Z,18.76
2017-05-17T04:13:38.811Z,18.7
2017-05-17T04:14:40.085Z,18.62
2017-05-17T04:15:41.357Z,18.79
2017-05-17T04:16:42.642Z,18.68
2017-05-17T04:17:43.967Z,18.67
2017-05-17T04:18:45.237Z,18.72
2017-05-17T04:19:46.516Z,18.77
2017-05-17T04:20:47.747Z,18.74
2017-05-17T04:21:49.086Z,18.79
2017-05-17T04:22:50.321Z,18.77
2017-05-17T04:23:51.573Z,18.84
2017-05-17T04:24:52.852Z,18.83
2017-05-17T04:25:54.127Z,18.79
2017-05-17T04:26:55.453Z,18.84
2017-05-17T04:27:56.828Z,18.86
2017-05-17T04:28:58.066Z,18.86
2017-05-17T04:29:59.335Z,18.9
2017-05-17T04:31:00.577Z,18.87
2017-05-17T04:32:01.949Z,18.94
2017-05-17T04:33:03.201Z,18.9
2017-05-17T04:34:04.492Z,18.99
2017-05-17T04:35:05.783Z,18.9
2017-05-17T04:36:07.036Z,18.94
2017-05-17T04:37:08.320Z,18.99
2017-05-17T04:38:09.630Z,19.01
2017-05-17T04:39:10.887Z,18.95
2017-05-17T04:40:12.116Z,18.94
2017-05-17T04:41:13.386Z,19.02
2017-05-17T04:42:14.653Z,19.01
2017-05-17T04:43:15.905Z,19.05
2017-05-17T04:44:17.386Z,19.01
2017-05-17T04:45:18.788Z,19.05
2017-05-17T04:46:19.946Z,19.01
2017-05-17T04:47:21.210Z,19.02
2017-05-17T04:48:22.470Z,19.06
2017-05-17T04:49:23.737Z,19.05
2017-05-17T04:50:25.099Z,19.02
2017-05-17T04:51:26.354Z,19.15
2017-05-17T04:52:27.635Z,19.13
2017-05-17T04:53:28.880Z,19.11
2017-05-17T04:54:30.142Z,19.24
2017-05-17T04:55:31.408Z,19.24
2017-05-17T04:56:32.679Z,19.28
2017-05-17T04:57:33.943Z,19.13
2017-05-17T04:58:35.224Z,19.29
2017-05-17T04:59:36.492Z,19.25
2017-05-17T05:00:37.771Z,19.32
2017-05-17T05:01:39.084Z,19.28
2017-05-17T05:02:40.365Z,19.31
2017-05-17T05:03:41.632Z,19.31
2017-05-17T05:04:42.881Z,19.36
2017-05-17T05:05:44.143Z,19.35
2017-05-17T05:06:45.466Z,19.31
2017-05-17T05:07:46.728Z,19.39
2017-05-17T05:08:48.024Z,19.35
2017-05-17T05:09:49.251Z,19.36
2017-05-17T05:10:50.513Z,19.42
2017-05-17T05:11:51.784Z,19.36
2017-05-17T05:12:53.096Z,19.36
2017-05-17T05:13:54.456Z,19.33
2017-05-17T05:14:55.740Z,19.36
2017-05-17T05:15:57.005Z,19.47
2017-05-17T05:16:58.271Z,19.51
2017-05-17T05:17:59.595Z,19.43
2017-05-17T05:19:00.865Z,19.53
2017-05-17T05:20:02.111Z,19.48
2017-05-17T05:21:03.354Z,19.55
2017-05-17T05:22:04.622Z,19.5
2017-05-17T05:23:05.972Z,19.55
2017-05-17T05:24:07.295Z,19.57
2017-05-17T05:25:08.641Z,19.47
2017-05-17T05:26:09.885Z,19.51
2017-05-17T05:27:11.127Z,19.6
2017-05-17T05:28:12.412Z,19.65
2017-05-17T05:29:13.689Z,19.63
2017-05-17T05:30:14.933Z,19.58
2017-05-17T05:31:16.224Z,19.72
2017-05-17T05:32:17.482Z,19.79
2017-05-17T05:33:18.754Z,19.7
2017-05-17T05:34:20.020Z,19.75
2017-05-17T05:35:21.272Z,19.76
2017-05-17T05:36:22.510Z,19.76
2017-05-17T05:37:23.846Z,19.8
2017-05-17T05:38:25.147Z,19.79
2017-05-17T05:39:26.399Z,19.87
2017-05-17T05:40:27.735Z,19.97
2017-05-17T05:41:28.947Z,19.88
2017-05-17T05:42:30.223Z,19.98
2017-05-17T05:43:31.683Z,20
2017-05-17T05:44:32.910Z,20.02
2017-05-17T05:45:34.169Z,20.05
2017-05-17T05:46:35.484Z,20.12
2017-05-17T05:47:36.769Z,20.09
2017-05-17T05:48:38.043Z,20.31
2017-05-17T05:49:39.245Z,20.27
2017-05-17T05:50:40.603Z,20.34
2017-05-17T05:51:41.886Z,20.39
2017-05-17T05:52:43.129Z,20.5
2017-05-17T05:53:44.385Z,20.54
2017-05-17T05:54:45.639Z,20.59
2017-05-17T05:55:46.926Z,20.59
2017-05-17T05:56:48.312Z,20.71
2017-05-17T05:57:49.594Z,20.66
2017-05-17T05:58:50.832Z,20.8
2017-05-17T05:59:52.226Z,20.96
2017-05-17T06:00:53.602Z,20.98
2017-05-17T06:01:54.880Z,21.08
2017-05-17T06:02:56.157Z,21.13
2017-05-17T06:03:57.414Z,21.19
2017-05-17T06:04:58.644Z,21.35
2017-05-17T06:05:59.951Z,21.42
2017-05-17T06:07:01.439Z,21.53
2017-05-17T06:08:02.604Z,21.66
2017-05-17T06:09:03.895Z,21.74
2017-05-17T06:10:05.099Z,21.76
2017-05-17T06:11:06.408Z,21.92
2017-05-17T06:12:07.792Z,21.81
2017-05-17T06:13:09.010Z,21.98
2017-05-17T06:14:10.291Z,21.97
2017-05-17T06:15:11.543Z,22.09
2017-05-17T06:16:12.836Z,22.25
2017-05-17T06:17:14.082Z,22.27
2017-05-17T06:18:15.349Z,22.31
2017-05-17T06:19:16.629Z,22.44
2017-05-17T06:20:17.878Z,22.67
2017-05-17T06:21:19.150Z,22.69
2017-05-17T06:22:20.406Z,22.77
2017-05-17T06:23:21.675Z,22.93
2017-05-17T06:24:22.934Z,23.02
2017-05-17T06:25:24.244Z,23.22
2017-05-17T06:26:25.678Z,23.31
2017-05-17T06:27:26.948Z,23.35
2017-05-17T06:28:28.310Z,23.34
2017-05-17T06:29:29.606Z,23.4
2017-05-17T06:30:30.905Z,23.5
2017-05-17T06:31:32.212Z,23.55
2017-05-17T06:32:33.470Z,23.68
2017-05-17T06:33:34.724Z,23.6
2017-05-17T06:34:36.109Z,23.65
2017-05-17T06:35:37.356Z,23.72
2017-05-17T06:36:38.645Z,23.82
2017-05-17T06:37:40.028Z,23.86
2017-05-17T06:38:41.305Z,23.94
2017-05-17T06:39:42.586Z,24.1
2017-05-17T06:40:43.969Z,24.1
2017-05-17T06:41:45.224Z,24.27
2017-05-17T06:42:46.471Z,24.5
2017-05-17T06:43:47.926Z,24.63
2017-05-17T06:44:49.125Z,24.67
2017-05-17T06:45:50.380Z,24.91
2017-05-17T06:46:51.706Z,24.98
2017-05-17T06:47:52.968Z,25.32
2017-05-17T06:48:54.263Z,25.49
2017-05-17T06:49:55.508Z,25.74
2017-05-17T06:50:56.785Z,25.94
2017-05-17T06:51:58.030Z,26.31
2017-05-17T06:52:59.341Z,26.52
2017-05-17T06:54:00.578Z,26.76
2017-05-17T06:55:01.909Z,26.98
2017-05-17T06:56:03.176Z,27.19
2017-05-17T06:57:04.433Z,27.28
2017-05-17T06:58:05.779Z,27.46
2017-05-17T06:59:06.989Z,27.48
2017-05-17T07:00:08.253Z,27.74
2017-05-17T07:01:09.537Z,27.58
2017-05-17T07:02:10.783Z,27.47
2017-05-17T07:03:12.075Z,27.42
2017-05-17T07:04:13.381Z,27.62
2017-05-17T07:05:14.677Z,27.89
2017-05-17T07:06:15.956Z,28.32
2017-05-17T07:07:17.226Z,28.65
2017-05-17T07:08:18.503Z,28.75
2017-05-17T07:09:19.783Z,29.2
2017-05-17T07:10:21.030Z,30.05
2017-05-17T07:11:22.291Z,30.57
2017-05-17T07:12:23.631Z,30.81
2017-05-17T07:13:24.888Z,31.27
2017-05-17T07:14:26.162Z,31.99
2017-05-17T07:15:27.433Z,32.59
2017-05-17T07:16:28.693Z,33.39
2017-05-17T07:17:29.961Z,33.71
2017-05-17T07:18:31.314Z,34.02
2017-05-17T07:19:32.530Z,33.63
2017-05-17T07:20:33.803Z,33.7
2017-05-17T07:21:35.084Z,32.85
2017-05-17T07:22:36.445Z,32.59
2017-05-17T07:23:37.794Z,32.52
2017-05-17T07:24:39.166Z,32.02
2017-05-17T07:25:40.342Z,32.37
2017-05-17T07:26:41.567Z,32.86
2017-05-17T07:27:42.831Z,33.3
2017-05-17T07:28:44.125Z,33.63
2017-05-17T07:29:45.539Z,34.05
2017-05-17T07:30:46.842Z,34.48
2017-05-17T07:31:48.100Z,34.72
2017-05-17T07:32:49.383Z,35.14
2017-05-17T07:33:50.653Z,35.74
2017-05-17T07:34:51.931Z,36.42
2017-05-17T07:35:53.190Z,37.26
2017-05-17T07:36:54.446Z,37.64
2017-05-17T07:37:55.701Z,38.05
2017-05-17T07:38:56.990Z,38.33
2017-05-17T07:39:58.254Z,38.42
2017-05-17T07:40:59.665Z,38.63
2017-05-17T07:42:01.079Z,38.48
2017-05-17T07:43:02.338Z,38.6
2017-05-17T07:44:03.653Z,38.29
2017-05-17T07:45:04.924Z,38.46
2017-05-17T07:46:06.234Z,38.57
2017-05-17T07:47:07.487Z,38.92
2017-05-17T07:48:08.776Z,39.59
2017-05-17T07:49:10.043Z,39.25
2017-05-17T07:50:11.316Z,39.21
2017-05-17T07:51:12.642Z,39.47
2017-05-17T07:52:13.946Z,38.82
2017-05-17T07:53:15.324Z,38.82
2017-05-17T07:54:16.499Z,39.02
2017-05-17T07:55:17.754Z,39.06
2017-05-17T07:56:19.022Z,39.36
2017-05-17T07:57:20.308Z,39.67
2017-05-17T07:58:21.658Z,39.96
2017-05-17T07:59:22.941Z,39.73
2017-05-17T08:00:24.203Z,39.8
2017-05-17T08:01:25.477Z,40.1
2017-05-17T08:02:26.749Z,40.45
2017-05-17T08:03:28.016Z,40.54
2017-05-17T08:04:29.305Z,40.15
2017-05-17T08:05:30.618Z,40.36
2017-05-17T08:06:31.895Z,40.75
2017-05-17T08:07:33.200Z,41.05
2017-05-17T08:08:34.403Z,41.5
2017-05-17T08:09:35.869Z,41.5
2017-05-17T08:10:37.143Z,41.58
2017-05-17T08:11:38.431Z,41.93
2017-05-17T08:12:39.694Z,42.5
2017-05-17T08:13:40.967Z,42.85
2017-05-17T08:14:42.334Z,43.07
2017-05-17T08:15:43.691Z,42.83
2017-05-17T08:16:44.935Z,42.81
2017-05-17T08:17:46.239Z,42.57
2017-05-17T08:18:47.525Z,42.69
2017-05-17T08:19:48.776Z,42.65
2017-05-17T08:20:50.052Z,42.73
2017-05-17T08:21:51.412Z,43.27
2017-05-17T08:22:52.872Z,42.2
2017-05-17T08:23:54.140Z,42.27
2017-05-17T08:24:55.405Z,41.96
2017-05-17T08:25:56.689Z,41.83
2017-05-17T08:26:57.988Z,42.2
2017-05-17T08:27:59.360Z,42.49
2017-05-17T08:29:00.641Z,42.85
2017-05-17T08:30:01.906Z,42.81
2017-05-17T08:31:03.190Z,43.41
2017-05-17T08:32:04.546Z,43.65
2017-05-17T08:33:05.910Z,43.29
2017-05-17T08:34:07.147Z,43.76
2017-05-17T08:35:08.448Z,43.61
2017-05-17T08:36:09.811Z,43.94
2017-05-17T08:37:11.091Z,44.04
2017-05-17T08:38:12.416Z,44.39
2017-05-17T08:39:14.528Z,44.62
2017-05-17T08:40:16.190Z,44.61
2017-05-17T08:41:18.828Z,44.24
2017-05-17T08:42:20.195Z,44.55
2017-05-17T08:43:21.430Z,44.29
2017-05-17T08:44:22.693Z,43.6
2017-05-17T08:45:24.010Z,43.68
2017-05-17T08:46:25.330Z,43.68
2017-05-17T08:47:26.640Z,43.63
2017-05-17T08:48:27.943Z,43.8
2017-05-17T08:49:29.249Z,44.36
2017-05-17T08:50:30.498Z,44.26
2017-05-17T08:51:31.766Z,44.08
2017-05-17T08:52:33.054Z,44.39
2017-05-17T08:53:34.350Z,44.38
2017-05-17T08:54:35.666Z,44.43
2017-05-17T08:55:36.920Z,44.43
2017-05-17T08:56:38.196Z,44.59
2017-05-17T08:57:39.510Z,44.26
2017-05-17T08:58:40.836Z,43.94
2017-05-17T08:59:42.118Z,43.38
2017-05-17T09:00:43.400Z,43.32
2017-05-17T09:01:44.652Z,43.33
2017-05-17T09:02:45.997Z,43.94
2017-05-17T09:03:47.288Z,44.45
2017-05-17T09:04:48.619Z,44.33
2017-05-17T09:05:49.900Z,44.04
2017-05-17T09:06:51.165Z,43.89
2017-05-17T09:07:52.488Z,43.9
2017-05-17T09:08:53.857Z,44.01
2017-05-17T09:09:55.168Z,44.31
2017-05-17T09:10:56.523Z,44.78
2017-05-17T09:11:57.814Z,44.78
2017-05-17T09:12:59.085Z,44.7
2017-05-17T09:14:00.458Z,44.82
2017-05-17T09:15:01.801Z,44.9
2017-05-17T09:16:03.062Z,45.06
2017-05-17T09:17:04.338Z,44.78
2017-05-17T09:18:05.594Z,44.81
2017-05-17T09:19:06.874Z,44.39
2017-05-17T09:20:08.241Z,44.23
2017-05-17T09:21:09.550Z,43.8
2017-05-17T09:22:10.768Z,43.13
2017-05-17T09:23:12.069Z,42.81
2017-05-17T09:24:13.382Z,42.68
2017-05-17T09:25:14.641Z,42.76
2017-05-17T09:26:15.918Z,42.39
2017-05-17T09:27:17.181Z,42.83
2017-05-17T09:28:18.479Z,43.38
2017-05-17T09:29:19.744Z,43.95
2017-05-17T09:30:21.295Z,43.97
2017-05-17T09:31:22.573Z,43.63
2017-05-17T09:32:23.873Z,44.01
2017-05-17T09:33:25.135Z,44.87
2017-05-17T09:34:26.423Z,45.08
2017-05-17T09:35:27.700Z,44.8
2017-05-17T09:36:28.983Z,44.92
2017-05-17T09:37:30.323Z,44.68
2017-05-17T09:38:31.601Z,44.57
2017-05-17T09:39:32.896Z,44.89
2017-05-17T09:40:34.237Z,44.5
2017-05-17T09:41:35.532Z,43.94
2017-05-17T09:42:36.859Z,42.78
2017-05-17T09:43:38.117Z,41.41
2017-05-17T09:44:39.401Z,41.28
2017-05-17T09:45:40.686Z,40.86
2017-05-17T09:46:41.989Z,40.43
2017-05-17T09:47:43.281Z,40.9
2017-05-17T09:48:44.663Z,41.61
2017-05-17T09:49:45.944Z,41.98
2017-05-17T09:50:47.229Z,41.97
2017-05-17T09:51:48.495Z,42.81
2017-05-17T09:52:49.811Z,43.29
2017-05-17T09:53:51.085Z,43.33
2017-05-17T09:54:52.460Z,43.51
2017-05-17T09:55:53.704Z,43.09
2017-05-17T09:56:54.989Z,43.07
2017-05-17T09:57:56.292Z,43.6
2017-05-17T09:58:57.579Z,44.28
2017-05-17T09:59:58.975Z,44.92
2017-05-17T10:01:00.259Z,45.42
2017-05-17T10:02:01.568Z,45.87
2017-05-17T10:03:02.851Z,45.84
2017-05-17T10:04:04.128Z,46.02
2017-05-17T10:05:05.547Z,45.59
2017-05-17T10:06:06.848Z,45.34
2017-05-17T10:07:08.132Z,45.69
2017-05-17T10:08:09.408Z,46.45
2017-05-17T10:09:10.675Z,46.34
2017-05-17T10:10:11.987Z,45.34
2017-05-17T10:11:13.267Z,44.77
2017-05-17T10:12:14.557Z,45.04
2017-05-17T10:13:15.845Z,44.9
2017-05-17T10:14:17.106Z,44.38
2017-05-17T10:15:18.446Z,44.17
2017-05-17T10:16:19.759Z,44.24
2017-05-17T10:17:21.023Z,44.16
2017-05-17T10:18:22.340Z,43.92
2017-05-17T10:19:23.619Z,44.23
2017-05-17T10:20:24.908Z,44.52
2017-05-17T10:21:26.282Z,44.62
2017-05-17T10:22:27.564Z,43.73
2017-05-17T10:23:28.842Z,42.95
2017-05-17T10:24:30.117Z,42.34
2017-05-17T10:25:31.374Z,42.2
2017-05-17T10:26:32.673Z,41.88
2017-05-17T10:27:33.960Z,41.91
2017-05-17T10:28:35.239Z,42.03
2017-05-17T10:29:36.518Z,41.98
2017-05-17T10:30:37.807Z,41.74
2017-05-17T10:31:39.129Z,41.37
2017-05-17T10:32:40.378Z,40.74
2017-05-17T10:33:41.684Z,39.64
2017-05-17T10:34:42.988Z,38.95
2017-05-17T10:35:44.234Z,37.88
2017-05-17T10:36:45.518Z,37.01
2017-05-17T10:37:46.806Z,36.75
2017-05-17T10:38:48.074Z,36.63
2017-05-17T10:39:49.374Z,36.58
2017-05-17T10:40:50.684Z,36.42
2017-05-17T10:41:51.960Z,35.99
2017-05-17T10:42:53.247Z,35.67
2017-05-17T10:43:54.493Z,35.62
2017-05-17T10:44:55.830Z,35.47
2017-05-17T10:45:57.093Z,35.42
2017-05-17T10:46:58.381Z,35.11
2017-05-17T10:47:59.614Z,34.84
2017-05-17T10:49:00.886Z,34.74
2017-05-17T10:50:02.202Z,34.48
2017-05-17T10:51:03.460Z,34.09
2017-05-17T10:52:04.810Z,33.9
2017-05-17T10:53:06.169Z,33.85
2017-05-17T10:54:07.427Z,33.9
2017-05-17T10:55:08.722Z,33.57
2017-05-17T10:56:10.044Z,33.3
2017-05-17T10:57:11.441Z,32.89
2017-05-17T10:58:12.752Z,32.7
2017-05-17T10:59:14.143Z,32.02
2017-05-17T11:00:15.426Z,31.55
2017-05-17T11:01:16.706Z,31.23
2017-05-17T11:02:18.008Z,30.75
2017-05-17T11:03:19.288Z,30.71
2017-05-17T11:04:20.565Z,30.64
2017-05-17T11:05:21.810Z,30.53
2017-05-17T11:06:23.068Z,30.24
2017-05-17T11:07:24.386Z,29.87
2017-05-17T11:08:25.689Z,29.92
2017-05-17T11:09:26.948Z,29.87
2017-05-17T11:10:28.280Z,29.94
2017-05-17T11:11:29.524Z,29.82
2017-05-17T11:12:30.807Z,29.78
2017-05-17T11:13:32.104Z,29.92
2017-05-17T11:14:33.367Z,29.87
2017-05-17T11:15:34.650Z,29.82
2017-05-17T11:16:35.902Z,29.7
2017-05-17T11:17:37.150Z,29.55
2017-05-17T11:18:38.493Z,29.4
2017-05-17T11:19:39.830Z,29.33
2017-05-17T11:20:41.096Z,29.26
2017-05-17T11:21:42.378Z,29.25
2017-05-17T11:22:43.663Z,29.26
2017-05-17T11:23:44.893Z,29.31
2017-05-17T11:24:46.188Z,29.25
2017-05-17T11:25:47.536Z,29.34
2017-05-17T11:26:48.831Z,29.31
2017-05-17T11:27:50.086Z,29.38
2017-05-17T11:28:51.373Z,29.33
2017-05-17T11:29:52.614Z,29.33
2017-05-17T11:30:53.892Z,29.29
2017-05-17T11:31:55.303Z,29.19
2017-05-17T11:32:56.526Z,28.85
2017-05-17T11:33:57.773Z,28.8
2017-05-17T11:34:59.041Z,28.8
2017-05-17T11:36:00.321Z,28.87
2017-05-17T11:37:01.603Z,28.91
2017-05-17T11:38:02.916Z,28.91
2017-05-17T11:39:04.189Z,28.96
2017-05-17T11:40:05.482Z,29.07
2017-05-17T11:41:06.734Z,29.15
2017-05-17T11:42:08.023Z,29.18
2017-05-17T11:43:09.289Z,29.11
2017-05-17T11:44:10.541Z,29.18
2017-05-17T11:45:11.855Z,29.22
2017-05-17T11:46:13.110Z,29.25
2017-05-17T11:47:14.354Z,29.2
2017-05-17T11:48:15.611Z,29.31
2017-05-17T11:49:16.882Z,29.28
2017-05-17T11:50:18.135Z,29.18
2017-05-17T11:51:19.422Z,29
2017-05-17T11:52:20.683Z,28.91
2017-05-17T11:53:21.968Z,28.81
2017-05-17T11:54:23.228Z,28.8
2017-05-17T11:55:24.491Z,28.75
2017-05-17T11:56:25.791Z,28.77
2017-05-17T11:57:27.039Z,28.78
2017-05-17T11:58:28.368Z,28.75
2017-05-17T11:59:29.648Z,28.72
2017-05-17T12:00:30.887Z,28.77
2017-05-17T12:01:32.178Z,28.81
2017-05-17T12:02:33.473Z,28.73
2017-05-17T12:03:34.799Z,28.84
2017-05-17T12:04:36.089Z,28.78
2017-05-17T12:05:37.325Z,28.68
2017-05-17T12:06:38.626Z,28.72
2017-05-17T12:07:39.988Z,28.84
2017-05-17T12:08:41.233Z,28.73
2017-05-17T12:09:42.522Z,28.85
2017-05-17T12:10:43.785Z,28.8
2017-05-17T12:11:45.046Z,28.75
2017-05-17T12:12:46.377Z,28.69
2017-05-17T12:13:47.654Z,28.73
2017-05-17T12:14:48.950Z,28.66
2017-05-17T12:15:50.214Z,28.66
2017-05-17T12:16:51.470Z,28.65
2017-05-17T12:17:52.717Z,28.7
2017-05-17T12:18:54.022Z,28.69
2017-05-17T12:19:55.254Z,28.69
2017-05-17T12:20:56.642Z,28.62
2017-05-17T12:21:57.915Z,28.58
2017-05-17T12:22:59.185Z,28.65
2017-05-17T12:24:00.441Z,28.69
2017-05-17T12:25:01.946Z,28.69
2017-05-17T12:26:03.177Z,28.66
2017-05-17T12:27:04.489Z,28.69
2017-05-17T12:28:05.769Z,28.69
2017-05-17T12:29:07.034Z,28.7
2017-05-17T12:30:08.343Z,28.63
2017-05-17T12:31:09.631Z,28.58
2017-05-17T12:32:10.867Z,28.53
2017-05-17T12:33:12.171Z,28.53
2017-05-17T12:34:13.411Z,28.51
2017-05-17T12:35:14.662Z,28.47
2017-05-17T12:36:16.005Z,28.56
2017-05-17T12:37:17.333Z,28.41
2017-05-17T12:38:18.623Z,28.4
2017-05-17T12:39:19.919Z,28.35
2017-05-17T12:40:21.193Z,28.41
2017-05-17T12:41:22.458Z,28.5
2017-05-17T12:42:23.781Z,28.43
2017-05-17T12:43:25.142Z,28.41
2017-05-17T12:44:26.411Z,28.32
2017-05-17T12:45:27.668Z,28.32
2017-05-17T12:46:28.937Z,28.43
2017-05-17T12:47:30.222Z,28.38
2017-05-17T12:48:31.559Z,28.41
2017-05-17T12:49:32.834Z,28.38
2017-05-17T12:50:34.131Z,28.41
2017-05-17T12:51:35.396Z,28.51
2017-05-17T12:52:36.697Z,28.43
2017-05-17T12:53:37.984Z,28.54
2017-05-17T12:54:39.263Z,28.44
2017-05-17T12:55:40.604Z,28.44
2017-05-17T12:56:41.893Z,28.46
2017-05-17T12:57:43.155Z,28.56
2017-05-17T12:58:44.447Z,28.6
2017-05-17T12:59:45.715Z,28.66
2017-05-17T13:00:47.036Z,28.72
2017-05-17T13:01:48.296Z,28.75
2017-05-17T13:02:49.563Z,28.69
2017-05-17T13:03:50.807Z,28.68
2017-05-17T13:04:52.114Z,28.63
2017-05-17T13:05:53.375Z,28.66
2017-05-17T13:06:54.680Z,28.48
2017-05-17T13:07:55.948Z,28.44
2017-05-17T13:08:57.218Z,28.41
2017-05-17T13:09:58.545Z,28.4
2017-05-17T13:10:59.788Z,28.46
2017-05-17T13:12:01.053Z,28.54
2017-05-17T13:13:02.451Z,28.58